createdAt,value
2023-03-16T00:00:09.757Z,82.79
2023-03-16T00:02:36.852Z,82.49
2023-03-16T00:05:04.265Z,82.80
2023-03-16T00:07:31.413Z,83.08
2023-03-16T00:09:58.546Z,83.21
2023-03-16T00:12:26.473Z,83.37
2023-03-16T00:14:54.467Z,83.59
2023-03-16T00:17:21.905Z,83.67
2023-03-16T00:19:55.506Z,84.03
2023-03-16T00:22:28.709Z,83.89
2023-03-16T00:24:56.430Z,83.60
2023-03-16T00:27:25.993Z,83.95
2023-03-16T00:29:57.195Z,84.04
2023-03-16T00:32:27.414Z,83.98
2023-03-16T00:34:54.416Z,83.85
2023-03-16T00:37:23.895Z,83.89
2023-03-16T00:39:52.578Z,83.99
2023-03-16T00:42:20.522Z,83.67
2023-03-16T00:44:47.896Z,84.17
2023-03-16T00:47:15.416Z,84.48
2023-03-16T00:49:44.256Z,85.31
2023-03-16T00:52:16.340Z,85.34
2023-03-16T00:54:45.272Z,85.82
2023-03-16T00:57:14.991Z,86.17
2023-03-16T00:59:42.601Z,86.23
2023-03-16T01:02:11.794Z,86.32
2023-03-16T01:04:40.300Z,86.67
2023-03-16T01:07:12.778Z,86.92
2023-03-16T01:09:41.213Z,87.05
2023-03-16T01:12:15.171Z,86.78
2023-03-16T01:14:46.036Z,87.21
2023-03-16T01:17:14.174Z,87.39
2023-03-16T01:19:42.101Z,87.29
2023-03-16T01:22:11.897Z,87.45
2023-03-16T01:24:40.132Z,87.69
2023-03-16T01:27:07.881Z,87.66
2023-03-16T01:29:35.424Z,87.69
2023-03-16T01:32:02.781Z,87.51
2023-03-16T01:34:30.297Z,87.46
2023-03-16T01:36:57.696Z,87.61
2023-03-16T01:39:28.138Z,87.50
2023-03-16T01:41:55.174Z,87.28
2023-03-16T01:44:30.709Z,87.80
2023-03-16T01:47:03.617Z,87.86
2023-03-16T01:49:34.263Z,87.78
2023-03-16T01:52:10.326Z,87.97
2023-03-16T01:54:46.316Z,88.17
2023-03-16T01:57:20.239Z,88.10
2023-03-16T01:59:53.917Z,88.44
2023-03-16T02:02:27.377Z,88.30
2023-03-16T02:05:27.153Z,89.02
2023-03-16T02:07:58.906Z,88.51
2023-03-16T02:10:29.385Z,88.59
2023-03-16T02:12:58.213Z,88.17
2023-03-16T02:15:25.909Z,88.38
2023-03-16T02:17:53.193Z,88.35
2023-03-16T02:20:44.301Z,88.74
2023-03-16T02:23:18.715Z,89.04
2023-03-16T02:25:57.818Z,88.33
2023-03-16T02:28:42.841Z,89.05
2023-03-16T02:31:10.529Z,88.63
2023-03-16T02:33:37.798Z,88.65
2023-03-16T02:36:07.352Z,89.02
2023-03-16T02:38:34.511Z,88.78
2023-03-16T02:41:19.296Z,89.11
2023-03-16T02:44:14.818Z,89.17
2023-03-16T02:46:44.142Z,89.15
2023-03-16T02:49:27.861Z,89.73
2023-03-16T02:51:55.106Z,89.46
2023-03-16T02:54:22.238Z,89.50
2023-03-16T02:56:49.388Z,89.43
2023-03-16T02:59:16.773Z,89.52
2023-03-16T03:01:43.886Z,89.59
2023-03-16T03:04:11.127Z,90.09
2023-03-16T03:06:38.355Z,90.08
2023-03-16T03:09:06.388Z,90.36
2023-03-16T03:11:33.702Z,89.84
2023-03-16T03:14:00.743Z,90.31
2023-03-16T03:16:28.448Z,90.84
2023-03-16T03:18:56.978Z,90.78
2023-03-16T03:21:24.389Z,91.19
2023-03-16T03:23:51.947Z,90.80
2023-03-16T03:26:20.050Z,91.00
2023-03-16T03:28:48.321Z,90.62
2023-03-16T03:31:22.158Z,90.66
2023-03-16T03:33:51.137Z,90.94
2023-03-16T03:36:18.297Z,90.80
2023-03-16T03:38:46.456Z,91.23
2023-03-16T03:41:13.550Z,91.08
2023-03-16T03:43:41.231Z,90.61
2023-03-16T03:46:13.806Z,90.79
2023-03-16T03:48:41.298Z,90.93
2023-03-16T03:51:08.344Z,90.96
2023-03-16T03:53:47.129Z,91.07
2023-03-16T03:56:14.333Z,91.19
2023-03-16T03:58:41.569Z,91.04
2023-03-16T04:01:09.698Z,91.14
2023-03-16T04:03:36.926Z,91.31
2023-03-16T04:06:08.207Z,91.57
2023-03-16T04:08:36.139Z,91.49
2023-03-16T04:11:04.585Z,91.66
2023-03-16T04:13:31.715Z,91.61
2023-03-16T04:16:05.245Z,91.76
2023-03-16T04:18:39.579Z,91.54
2023-03-16T04:21:14.175Z,91.97
2023-03-16T04:23:42.728Z,91.61
2023-03-16T04:26:10.878Z,92.02
2023-03-16T04:28:38.146Z,91.85
2023-03-16T04:31:07.600Z,91.79
2023-03-16T04:33:40.298Z,91.72
2023-03-16T04:36:07.728Z,91.50
2023-03-16T04:38:37.047Z,91.80
2023-03-16T04:41:05.901Z,91.71
2023-03-16T04:43:40.655Z,91.65
2023-03-16T04:46:14.891Z,91.75
2023-03-16T04:48:42.078Z,92.13
2023-03-16T04:51:09.511Z,91.79
2023-03-16T04:53:40.482Z,92.15
2023-03-16T04:56:19.903Z,92.12
2023-03-16T04:58:53.837Z,91.94
2023-03-16T05:01:23.967Z,92.11
2023-03-16T05:03:54.787Z,92.27
2023-03-16T05:06:22.541Z,92.43
2023-03-16T05:08:49.904Z,92.38
2023-03-16T05:11:17.416Z,92.15
2023-03-16T05:13:54.871Z,92.41
2023-03-16T05:16:22.519Z,92.28
2023-03-16T05:18:50.577Z,92.38
2023-03-16T05:21:17.714Z,92.56
2023-03-16T05:23:57.858Z,92.47
2023-03-16T05:26:27.899Z,92.23
2023-03-16T05:28:56.098Z,92.45
2023-03-16T05:31:29.067Z,92.58
2023-03-16T05:33:59.897Z,92.59
2023-03-16T05:36:27.196Z,92.51
2023-03-16T05:38:59.592Z,92.77
2023-03-16T05:41:32.240Z,92.82
2023-03-16T05:44:04.730Z,91.95
2023-03-16T05:46:52.134Z,90.91
2023-03-16T05:49:19.385Z,90.57
2023-03-16T05:51:46.672Z,90.59
2023-03-16T05:54:14.158Z,91.03
2023-03-16T05:56:45.113Z,90.89
2023-03-16T05:59:12.156Z,90.78
2023-03-16T06:01:40.415Z,90.72
2023-03-16T06:04:08.183Z,90.69
2023-03-16T06:06:39.904Z,90.64
2023-03-16T06:09:14.270Z,90.90
2023-03-16T06:11:42.267Z,90.83
2023-03-16T06:14:09.563Z,90.80
2023-03-16T06:16:37.213Z,90.91
2023-03-16T06:19:04.381Z,91.07
2023-03-16T06:21:33.351Z,91.05
2023-03-16T06:24:09.454Z,91.29
2023-03-16T06:26:37.806Z,91.31
2023-03-16T06:29:08.005Z,91.19
2023-03-16T06:31:37.433Z,91.55
2023-03-16T06:34:05.313Z,91.37
2023-03-16T06:36:32.487Z,91.40
2023-03-16T06:39:01.719Z,91.36
2023-03-16T06:41:34.961Z,91.54
2023-03-16T06:44:03.068Z,91.03
2023-03-16T06:46:30.492Z,91.24
2023-03-16T06:49:01.151Z,91.07
2023-03-16T06:51:28.546Z,91.05
2023-03-16T06:53:55.712Z,91.38
2023-03-16T06:56:23.378Z,91.17
2023-03-16T06:58:50.516Z,91.14
2023-03-16T07:01:17.970Z,90.80
2023-03-16T07:03:45.180Z,90.48
2023-03-16T07:06:20.705Z,90.36
2023-03-16T07:08:47.861Z,89.80
2023-03-16T07:11:15.383Z,89.57
2023-03-16T07:13:42.590Z,89.57
2023-03-16T07:16:10.547Z,89.27
2023-03-16T07:18:40.087Z,89.44
2023-03-16T07:21:10.984Z,88.88
2023-03-16T07:23:38.961Z,88.88
2023-03-16T07:26:08.458Z,88.87
2023-03-16T07:28:39.803Z,88.46
2023-03-16T07:31:07.500Z,88.23
2023-03-16T07:33:39.303Z,88.18
2023-03-16T07:36:10.973Z,87.71
2023-03-16T07:38:44.168Z,87.30
2023-03-16T07:41:12.726Z,86.87
2023-03-16T07:43:41.076Z,87.00
2023-03-16T07:46:13.962Z,87.10
2023-03-16T07:48:45.181Z,86.72
2023-03-16T07:51:14.074Z,86.88
2023-03-16T07:53:43.424Z,86.32
2023-03-16T07:56:47.428Z,86.31
2023-03-16T07:59:24.063Z,86.33
2023-03-16T08:01:51.312Z,86.14
2023-03-16T08:04:18.501Z,85.71
2023-03-16T08:06:46.216Z,85.30
2023-03-16T08:09:14.619Z,85.04
2023-03-16T08:11:42.112Z,85.18
2023-03-16T08:14:09.345Z,85.04
2023-03-16T08:16:58.423Z,84.50
2023-03-16T08:19:27.700Z,83.87
2023-03-16T08:22:01.775Z,82.92
2023-03-16T08:24:36.143Z,82.50
2023-03-16T08:27:04.910Z,81.57
2023-03-16T08:29:34.745Z,81.69
2023-03-16T08:32:03.906Z,80.80
2023-03-16T08:34:40.169Z,80.38
2023-03-16T08:37:10.015Z,79.46
2023-03-16T08:39:37.268Z,78.52
2023-03-16T08:42:09.208Z,78.26
2023-03-16T08:44:44.311Z,78.43
2023-03-16T08:47:12.331Z,77.89
2023-03-16T08:49:42.730Z,77.27
2023-03-16T08:52:13.554Z,76.16
2023-03-16T08:54:49.739Z,75.50
2023-03-16T08:57:23.716Z,75.26
2023-03-16T08:59:51.598Z,74.72
2023-03-16T09:02:18.903Z,74.66
2023-03-16T09:04:46.285Z,74.05
2023-03-16T09:07:13.810Z,72.95
2023-03-16T09:09:41.045Z,72.19
2023-03-16T09:12:08.687Z,72.16
2023-03-16T09:14:37.861Z,71.45
2023-03-16T09:17:05.434Z,72.03
2023-03-16T09:19:50.095Z,71.33
2023-03-16T09:22:18.596Z,70.93
2023-03-16T09:24:45.903Z,71.27
2023-03-16T09:27:13.360Z,71.89
2023-03-16T09:29:41.341Z,72.15
2023-03-16T09:32:09.817Z,72.76
2023-03-16T09:34:37.020Z,73.21
2023-03-16T09:37:04.624Z,74.06
2023-03-16T09:39:32.271Z,74.04
2023-03-16T09:42:13.312Z,74.92
2023-03-16T09:44:52.613Z,74.98
2023-03-16T09:47:27.563Z,74.88
2023-03-16T09:49:58.784Z,74.49
2023-03-16T09:52:35.504Z,74.36
2023-03-16T09:55:36.876Z,74.46
2023-03-16T09:58:10.985Z,73.83
2023-03-16T10:00:47.911Z,73.09
2023-03-16T10:03:34.637Z,72.93
2023-03-16T10:06:04.311Z,72.48
2023-03-16T10:08:39.441Z,71.61
2023-03-16T10:11:33.395Z,70.60
2023-03-16T10:14:33.237Z,70.56
2023-03-16T10:17:35.745Z,70.86
2023-03-16T10:20:09.230Z,71.58
2023-03-16T10:22:42.619Z,71.60
2023-03-16T10:25:27.990Z,72.64
2023-03-16T10:27:56.852Z,72.27
2023-03-16T10:30:33.649Z,73.30
2023-03-16T10:33:11.935Z,73.33
2023-03-16T10:36:04.013Z,73.88
2023-03-16T10:38:40.283Z,73.99
2023-03-16T10:41:29.526Z,74.21
2023-03-16T10:44:08.703Z,74.36
2023-03-16T10:46:40.906Z,74.21
2023-03-16T10:49:42.359Z,74.43
2023-03-16T10:52:19.832Z,74.31
2023-03-16T10:55:11.659Z,74.39
2023-03-16T10:57:43.060Z,73.74
2023-03-16T11:00:41.836Z,73.80
2023-03-16T11:03:26.222Z,73.78
2023-03-16T11:06:05.228Z,73.81
2023-03-16T11:08:35.790Z,73.70
2023-03-16T11:11:12.133Z,73.53
2023-03-16T11:13:45.473Z,73.67
2023-03-16T11:16:32.406Z,73.43
2023-03-16T11:19:22.525Z,73.65
2023-03-16T11:21:57.345Z,73.10
2023-03-16T11:25:02.383Z,73.46
2023-03-16T11:28:01.549Z,72.83
2023-03-16T11:30:35.523Z,73.17
2023-03-16T11:33:04.329Z,72.79
2023-03-16T11:35:59.332Z,71.96
2023-03-16T11:39:04.902Z,71.86
2023-03-16T11:42:04.202Z,72.53
2023-03-16T11:45:12.751Z,72.13
2023-03-16T11:48:09.849Z,71.50
2023-03-16T11:51:05.586Z,68.41
2023-03-16T11:53:38.637Z,67.55
2023-03-16T11:56:15.712Z,68.56
2023-03-16T11:59:22.045Z,69.04
2023-03-16T12:02:26.447Z,68.84
2023-03-16T12:05:11.873Z,69.45
2023-03-16T12:08:04.559Z,69.21
2023-03-16T12:10:57.876Z,70.00
2023-03-16T12:13:57.306Z,70.26
2023-03-16T12:16:48.677Z,70.74
2023-03-16T12:19:25.066Z,71.14
2023-03-16T12:22:17.451Z,71.60
2023-03-16T12:24:48.256Z,71.96
2023-03-16T12:27:22.815Z,71.33
2023-03-16T12:30:03.938Z,70.89
2023-03-16T12:32:39.184Z,70.49
2023-03-16T12:35:18.255Z,70.42
2023-03-16T12:37:56.908Z,70.21
2023-03-16T12:40:34.058Z,71.07
2023-03-16T12:43:19.166Z,71.33
2023-03-16T12:45:58.750Z,70.93
2023-03-16T12:48:32.716Z,71.62
2023-03-16T12:51:05.353Z,72.95
2023-03-16T12:53:52.054Z,73.94
2023-03-16T12:56:30.379Z,73.83
2023-03-16T12:59:00.449Z,74.41
2023-03-16T13:01:31.415Z,73.71
2023-03-16T13:04:24.129Z,72.94
2023-03-16T13:07:02.054Z,72.39
2023-03-16T13:09:32.947Z,71.20
2023-03-16T13:12:05.215Z,70.24
2023-03-16T13:14:44.462Z,68.45
2023-03-16T13:17:17.349Z,68.25
2023-03-16T13:19:47.987Z,67.99
2023-03-16T13:22:31.396Z,67.80
2023-03-16T13:25:25.742Z,67.88
2023-03-16T13:27:56.178Z,67.34
2023-03-16T13:30:29.947Z,67.13
2023-03-16T13:33:04.546Z,66.39
2023-03-16T13:35:32.284Z,66.95
2023-03-16T13:38:06.823Z,67.76
2023-03-16T13:40:35.106Z,68.09
2023-03-16T13:43:02.321Z,68.15
2023-03-16T13:45:34.008Z,67.34
2023-03-16T13:48:05.681Z,67.31
2023-03-16T13:50:34.236Z,67.11
2023-03-16T13:53:04.986Z,66.79
2023-03-16T13:55:35.021Z,64.78
2023-03-16T13:58:04.247Z,64.12
2023-03-16T14:00:35.128Z,63.76
2023-03-16T14:03:14.665Z,63.28
2023-03-16T14:05:41.743Z,62.33
2023-03-16T14:08:22.114Z,61.79
2023-03-16T14:10:51.059Z,61.59
2023-03-16T14:13:25.865Z,61.30
2023-03-16T14:16:00.323Z,61.65
2023-03-16T14:18:37.771Z,61.56
2023-03-16T14:21:09.939Z,61.69
2023-03-16T14:23:46.731Z,61.84
2023-03-16T14:26:27.944Z,60.88
2023-03-16T14:28:57.527Z,60.85
2023-03-16T14:31:38.448Z,59.67
2023-03-16T14:34:20.262Z,59.51
2023-03-16T14:36:47.624Z,59.37
2023-03-16T14:39:19.771Z,59.44
2023-03-16T14:41:52.520Z,58.56
2023-03-16T14:44:24.368Z,59.17
2023-03-16T14:46:54.472Z,58.83
2023-03-16T14:49:36.629Z,58.36
2023-03-16T14:52:15.918Z,59.09
2023-03-16T14:54:43.100Z,58.03
2023-03-16T14:57:17.106Z,57.33
2023-03-16T14:59:44.304Z,57.96
2023-03-16T15:02:25.533Z,59.14
2023-03-16T15:04:53.036Z,58.71
2023-03-16T15:07:27.301Z,58.41
2023-03-16T15:09:56.742Z,58.58
2023-03-16T15:12:26.304Z,59.01
2023-03-16T15:15:12.507Z,59.10
2023-03-16T15:17:39.663Z,59.75
2023-03-16T15:20:07.749Z,60.51
2023-03-16T15:22:38.590Z,60.21
2023-03-16T15:25:24.904Z,60.44
2023-03-16T15:27:53.193Z,60.77
2023-03-16T15:30:26.569Z,60.12
2023-03-16T15:32:53.888Z,59.86
2023-03-16T15:35:21.504Z,59.64
2023-03-16T15:37:49.343Z,59.12
2023-03-16T15:40:28.737Z,58.84
2023-03-16T15:42:56.307Z,58.90
2023-03-16T15:45:23.923Z,59.05
2023-03-16T15:47:52.561Z,59.13
2023-03-16T15:50:21.963Z,59.52
2023-03-16T15:53:00.169Z,59.96
2023-03-16T15:55:42.711Z,60.17
2023-03-16T15:58:20.502Z,60.49
2023-03-16T16:00:48.970Z,60.60
2023-03-16T16:03:16.216Z,60.12
2023-03-16T16:05:43.415Z,60.13
2023-03-16T16:08:10.657Z,59.96
2023-03-16T16:10:39.758Z,60.55
2023-03-16T16:13:11.941Z,60.36
2023-03-16T16:15:39.818Z,60.42
2023-03-16T16:18:35.246Z,60.61
2023-03-16T16:21:05.446Z,60.59
2023-03-16T16:23:33.156Z,60.82
2023-03-16T16:26:04.017Z,60.85
2023-03-16T16:28:33.142Z,61.53
2023-03-16T16:31:03.940Z,61.78
2023-03-16T16:33:33.955Z,62.05
2023-03-16T16:36:04.725Z,61.97
2023-03-16T16:38:32.625Z,62.32
2023-03-16T16:41:02.220Z,62.66
2023-03-16T16:43:37.761Z,63.14
2023-03-16T16:46:24.166Z,64.02
2023-03-16T16:48:58.054Z,64.47
2023-03-16T16:51:28.012Z,65.01
2023-03-16T16:53:57.871Z,65.89
2023-03-16T16:56:33.900Z,66.51
2023-03-16T16:59:12.891Z,66.69
2023-03-16T17:01:40.309Z,67.51
2023-03-16T17:04:17.517Z,67.82
2023-03-16T17:06:46.081Z,67.67
2023-03-16T17:09:14.583Z,68.17
2023-03-16T17:11:44.155Z,68.50
2023-03-16T17:14:17.219Z,69.55
2023-03-16T17:16:47.348Z,70.09
2023-03-16T17:19:20.343Z,70.72
2023-03-16T17:21:49.020Z,70.77
2023-03-16T17:24:17.085Z,71.34
2023-03-16T17:27:04.828Z,71.66
2023-03-16T17:29:33.988Z,71.34
2023-03-16T17:32:17.147Z,71.66
2023-03-16T17:34:44.518Z,71.66
2023-03-16T17:37:16.683Z,71.77
2023-03-16T17:39:44.015Z,71.84
2023-03-16T17:42:20.584Z,71.98
2023-03-16T17:44:51.025Z,71.97
2023-03-16T17:47:23.764Z,72.88
2023-03-16T17:49:52.127Z,72.51
2023-03-16T17:52:23.768Z,72.86
2023-03-16T17:54:53.575Z,73.14
2023-03-16T17:57:29.776Z,73.36
2023-03-16T17:59:57.902Z,73.66
2023-03-16T18:02:39.885Z,74.19
2023-03-16T18:05:18.431Z,74.28
2023-03-16T18:07:45.658Z,74.36
2023-03-16T18:10:18.166Z,74.64
2023-03-16T18:12:48.388Z,75.17
2023-03-16T18:15:16.900Z,75.17
2023-03-16T18:17:44.931Z,74.78
2023-03-16T18:20:34.511Z,75.56
2023-03-16T18:23:10.643Z,75.53
2023-03-16T18:25:42.382Z,76.03
2023-03-16T18:28:11.420Z,76.16
2023-03-16T18:30:39.988Z,75.86
2023-03-16T18:33:17.395Z,76.36
2023-03-16T18:35:44.823Z,76.50
2023-03-16T18:38:32.503Z,76.76
2023-03-16T18:41:02.309Z,76.84
2023-03-16T18:43:29.990Z,77.05
2023-03-16T18:45:57.382Z,77.45
2023-03-16T18:48:33.590Z,77.40
2023-03-16T18:51:01.332Z,77.53
2023-03-16T18:53:29.188Z,77.45
2023-03-16T18:55:57.617Z,77.76
2023-03-16T18:58:25.579Z,77.94
2023-03-16T19:01:00.774Z,77.51
2023-03-16T19:03:43.702Z,77.66
2023-03-16T19:06:41.771Z,77.91
2023-03-16T19:09:23.000Z,78.11
2023-03-16T19:11:50.898Z,78.21
2023-03-16T19:14:24.685Z,78.38
2023-03-16T19:16:52.471Z,78.64
2023-03-16T19:19:22.116Z,78.44
2023-03-16T19:21:52.942Z,78.51
2023-03-16T19:24:50.954Z,78.60
2023-03-16T19:27:31.670Z,79.02
2023-03-16T19:29:59.098Z,79.02
2023-03-16T19:32:26.638Z,79.45
2023-03-16T19:34:54.002Z,79.95
2023-03-16T19:37:23.975Z,79.90
2023-03-16T19:39:51.466Z,79.82
2023-03-16T19:42:28.402Z,79.74
2023-03-16T19:44:55.584Z,80.00
2023-03-16T19:47:30.996Z,79.84
2023-03-16T19:49:59.349Z,79.64
2023-03-16T19:52:28.439Z,79.82
2023-03-16T19:54:55.657Z,79.74
2023-03-16T19:57:23.251Z,79.99
2023-03-16T19:59:57.320Z,79.89
2023-03-16T20:02:36.582Z,79.98
2023-03-16T20:05:05.226Z,80.27
2023-03-16T20:07:38.236Z,80.29
2023-03-16T20:10:06.780Z,80.32
2023-03-16T20:12:37.227Z,80.46
2023-03-16T20:15:04.804Z,80.24
2023-03-16T20:17:33.196Z,80.32
2023-03-16T20:20:00.340Z,80.58
2023-03-16T20:22:28.865Z,80.45
2023-03-16T20:24:58.263Z,80.24
2023-03-16T20:27:27.958Z,80.22
2023-03-16T20:29:56.060Z,80.52
2023-03-16T20:32:26.217Z,80.84
2023-03-16T20:34:54.268Z,80.50
2023-03-16T20:37:26.475Z,80.46
2023-03-16T20:39:56.421Z,80.70
2023-03-16T20:42:31.263Z,80.89
2023-03-16T20:44:59.493Z,81.28
2023-03-16T20:47:27.406Z,80.83
2023-03-16T20:49:57.826Z,81.01
2023-03-16T20:52:30.852Z,81.41
2023-03-16T20:54:58.491Z,81.08
2023-03-16T20:57:29.306Z,81.07
2023-03-16T20:59:56.703Z,81.47
2023-03-16T21:02:41.786Z,81.28
2023-03-16T21:05:12.859Z,80.68
2023-03-16T21:07:40.102Z,80.72
2023-03-16T21:10:07.786Z,80.59
2023-03-16T21:12:39.586Z,80.57
2023-03-16T21:15:25.757Z,80.62
2023-03-16T21:18:00.185Z,80.77
2023-03-16T21:20:30.987Z,81.09
2023-03-16T21:22:58.910Z,80.62
2023-03-16T21:25:32.952Z,80.84
2023-03-16T21:28:03.345Z,80.92
2023-03-16T21:30:40.201Z,80.83
2023-03-16T21:33:19.157Z,81.07
2023-03-16T21:35:46.680Z,81.06
2023-03-16T21:38:19.548Z,81.08
2023-03-16T21:40:48.077Z,80.84
2023-03-16T21:43:15.814Z,81.33
2023-03-16T21:45:43.916Z,81.54
2023-03-16T21:48:28.269Z,81.21
2023-03-16T21:50:56.043Z,81.21
2023-03-16T21:53:28.869Z,81.40
2023-03-16T21:55:57.423Z,81.45
2023-03-16T21:58:25.095Z,80.98
2023-03-16T22:00:54.838Z,81.07
2023-03-16T22:03:24.971Z,80.89
2023-03-16T22:05:53.054Z,80.51
2023-03-16T22:08:29.413Z,80.48
2023-03-16T22:10:57.372Z,80.60
2023-03-16T22:13:24.669Z,80.65
2023-03-16T22:15:53.413Z,80.75
2023-03-16T22:18:40.753Z,80.85
2023-03-16T22:21:42.130Z,80.39
2023-03-16T22:24:22.349Z,80.41
2023-03-16T22:26:50.968Z,80.89
2023-03-16T22:29:28.549Z,80.41
2023-03-16T22:31:59.645Z,80.40
2023-03-16T22:34:39.597Z,80.89
2023-03-16T22:37:08.185Z,81.24
2023-03-16T22:39:38.605Z,80.85
2023-03-16T22:42:38.936Z,80.82
2023-03-16T22:45:23.166Z,80.92
2023-03-16T22:47:50.935Z,81.32
2023-03-16T22:50:19.889Z,81.27
2023-03-16T22:52:50.223Z,81.40
2023-03-16T22:55:23.791Z,81.84
2023-03-16T22:57:55.738Z,81.27
2023-03-16T23:00:22.986Z,81.35
2023-03-16T23:02:50.408Z,81.59
2023-03-16T23:05:21.979Z,81.54
2023-03-16T23:07:48.933Z,81.25
2023-03-16T23:10:21.409Z,81.59
2023-03-16T23:12:49.525Z,81.68
2023-03-16T23:15:28.799Z,81.57
2023-03-16T23:17:56.619Z,81.73
2023-03-16T23:20:25.286Z,81.72
2023-03-16T23:22:53.343Z,81.97
2023-03-16T23:25:22.137Z,81.79
2023-03-16T23:27:51.735Z,81.93
2023-03-16T23:30:25.924Z,82.28
2023-03-16T23:32:54.770Z,82.27
2023-03-16T23:35:27.725Z,82.26
2023-03-16T23:37:55.924Z,82.21
2023-03-16T23:40:26.230Z,82.57
2023-03-16T23:42:56.108Z,82.12
2023-03-16T23:45:28.427Z,82.04
2023-03-16T23:47:57.725Z,81.91
2023-03-16T23:50:29.159Z,82.20
2023-03-16T23:52:56.433Z,81.87
2023-03-16T23:55:24.292Z,81.77
2023-03-16T23:57:51.280Z,81.47
